createdAt,value
2023-05-17T00:00:40.284Z,23.53
2023-05-17T00:02:45.595Z,23.51
2023-05-17T00:04:51.010Z,23.5
2023-05-17T00:06:56.712Z,23.51
2023-05-17T00:09:01.945Z,23.52
2023-05-17T00:11:07.283Z,23.53
2023-05-17T00:13:12.824Z,23.51
2023-05-17T00:15:18.165Z,23.51
2023-05-17T00:17:23.434Z,23.47
2023-05-17T00:19:28.970Z,23.47
2023-05-17T00:21:34.478Z,23.47
2023-05-17T00:23:39.824Z,23.44
2023-05-17T00:25:45.262Z,23.43
2023-05-17T00:27:50.496Z,23.44
2023-05-17T00:29:55.950Z,23.42
2023-05-17T00:32:01.391Z,23.43
2023-05-17T00:34:06.816Z,23.41
2023-05-17T00:36:12.153Z,23.41
2023-05-17T00:38:17.493Z,23.41
2023-05-17T00:40:22.840Z,23.41
2023-05-17T00:42:28.280Z,23.39
2023-05-17T00:44:33.619Z,23.39
2023-05-17T00:46:38.950Z,23.39
2023-05-17T00:48:44.418Z,23.39
2023-05-17T00:50:49.928Z,23.39
2023-05-17T00:52:55.368Z,23.4
2023-05-17T00:55:02.554Z,23.38
2023-05-17T00:57:07.786Z,23.38
2023-05-17T00:59:13.026Z,23.38
2023-05-17T01:01:18.595Z,23.36
2023-05-17T01:03:23.978Z,23.37
2023-05-17T01:05:29.701Z,23.36
2023-05-17T01:07:35.194Z,23.36
2023-05-17T01:09:40.632Z,23.34
2023-05-17T01:11:46.089Z,23.34
2023-05-17T01:13:51.408Z,23.29
2023-05-17T01:15:56.650Z,23.28
2023-05-17T01:18:01.907Z,23.27
2023-05-17T01:20:07.624Z,23.25
2023-05-17T01:22:13.576Z,23.23
2023-05-17T01:24:19.017Z,23.2
2023-05-17T01:26:24.256Z,23.19
2023-05-17T01:28:29.693Z,23.17
2023-05-17T01:30:35.136Z,23.18
2023-05-17T01:32:40.484Z,23.18
2023-05-17T01:34:46.019Z,23.17
2023-05-17T01:36:51.562Z,23.17
2023-05-17T01:38:56.841Z,23.15
2023-05-17T01:41:02.240Z,23.12
2023-05-17T01:43:07.575Z,23.14
2023-05-17T01:45:12.807Z,23.11
2023-05-17T01:47:20.806Z,23.1
2023-05-17T01:49:26.056Z,23.11
2023-05-17T01:51:31.481Z,23.1
2023-05-17T01:53:36.766Z,23.1
2023-05-17T01:55:42.256Z,23.08
2023-05-17T01:57:47.806Z,23.06
2023-05-17T01:59:53.032Z,23.06
2023-05-17T02:01:58.289Z,23.1
2023-05-17T02:04:03.752Z,23.1
2023-05-17T02:06:09.191Z,23.12
2023-05-17T02:08:14.590Z,23.11
2023-05-17T02:10:19.800Z,23.12
2023-05-17T02:12:25.061Z,23.13
2023-05-17T02:14:30.301Z,23.1
2023-05-17T02:16:35.646Z,23.1
2023-05-17T02:18:41.040Z,23.11
2023-05-17T02:20:46.622Z,23.1
2023-05-17T02:22:51.982Z,23.1
2023-05-17T02:24:57.498Z,23.09
2023-05-17T02:27:02.870Z,23.06
2023-05-17T02:29:08.171Z,23.07
2023-05-17T02:31:13.419Z,23.07
2023-05-17T02:33:18.721Z,23.06
2023-05-17T02:35:24.291Z,23.04
2023-05-17T02:37:29.703Z,23.01
2023-05-17T02:39:35.187Z,23.01
2023-05-17T02:41:40.511Z,22.98
2023-05-17T02:43:45.893Z,22.97
2023-05-17T02:45:51.296Z,22.97
2023-05-17T02:47:56.749Z,22.95
2023-05-17T02:50:02.071Z,22.93
2023-05-17T02:52:07.396Z,22.91
2023-05-17T02:54:12.737Z,22.88
2023-05-17T02:56:17.977Z,22.87
2023-05-17T02:58:23.210Z,22.87
2023-05-17T03:00:28.651Z,22.87
2023-05-17T03:02:34.171Z,22.86
2023-05-17T03:04:39.961Z,22.83
2023-05-17T03:06:45.379Z,22.82
2023-05-17T03:10:22.265Z,22.77
2023-05-17T03:12:28.898Z,22.77
2023-05-17T03:14:34.892Z,22.74
2023-05-17T03:16:40.222Z,22.73
2023-05-17T03:18:45.661Z,22.72
2023-05-17T03:20:51.512Z,22.71
2023-05-17T03:22:56.947Z,22.68
2023-05-17T03:25:02.188Z,22.68
2023-05-17T03:27:07.646Z,22.68
2023-05-17T03:29:13.185Z,22.66
2023-05-17T03:31:18.409Z,22.65
2023-05-17T03:33:23.923Z,22.63
2023-05-17T03:35:29.975Z,22.63
2023-05-17T03:37:35.545Z,22.62
2023-05-17T03:39:40.783Z,22.61
2023-05-17T03:41:46.115Z,22.61
2023-05-17T03:43:51.565Z,22.62
2023-05-17T03:45:56.897Z,22.57
2023-05-17T03:48:02.360Z,22.61
2023-05-17T03:50:07.795Z,22.56
2023-05-17T03:52:13.126Z,22.57
2023-05-17T03:54:18.554Z,22.57
2023-05-17T03:56:23.994Z,22.55
2023-05-17T03:58:29.227Z,22.54
2023-05-17T04:00:34.692Z,22.52
2023-05-17T04:02:40.084Z,22.5
2023-05-17T04:04:45.590Z,22.51
2023-05-17T04:06:50.999Z,22.51
2023-05-17T04:08:56.227Z,22.46
2023-05-17T04:11:01.675Z,22.42
2023-05-17T04:13:07.007Z,22.43
2023-05-17T04:15:12.548Z,22.45
2023-05-17T04:17:17.986Z,22.42
2023-05-17T04:19:23.638Z,22.42
2023-05-17T04:21:29.174Z,22.39
2023-05-17T04:23:34.525Z,22.37
2023-05-17T04:25:39.751Z,22.37
2023-05-17T04:27:45.191Z,22.36
2023-05-17T04:29:50.559Z,22.37
2023-05-17T04:31:55.796Z,22.37
2023-05-17T04:34:01.037Z,22.36
2023-05-17T04:36:06.437Z,22.35
2023-05-17T04:38:11.880Z,22.35
2023-05-17T04:40:17.328Z,22.35
2023-05-17T04:42:22.860Z,22.33
2023-05-17T04:44:28.101Z,22.33
2023-05-17T04:46:33.437Z,22.33
2023-05-17T04:48:41.706Z,22.35
2023-05-17T04:50:47.284Z,22.36
2023-05-17T04:52:52.626Z,22.36
2023-05-17T04:54:57.977Z,22.36
2023-05-17T04:57:03.401Z,22.37
2023-05-17T04:59:08.841Z,22.36
2023-05-17T05:01:14.284Z,22.37
2023-05-17T05:03:19.755Z,22.38
2023-05-17T05:05:27.948Z,22.38
2023-05-17T05:07:33.980Z,22.37
2023-05-17T05:09:39.419Z,22.35
2023-05-17T05:11:44.863Z,22.35
2023-05-17T05:13:50.306Z,22.33
2023-05-17T05:15:55.738Z,22.29
2023-05-17T05:18:01.314Z,22.3
2023-05-17T05:20:06.824Z,22.28
2023-05-17T05:22:12.059Z,22.26
2023-05-17T05:24:17.315Z,22.27
2023-05-17T05:26:22.636Z,22.26
2023-05-17T05:28:27.967Z,22.27
2023-05-17T05:30:33.416Z,22.27
2023-05-17T05:32:38.934Z,22.3
2023-05-17T05:34:44.494Z,22.34
2023-05-17T05:36:49.832Z,22.41
2023-05-17T05:38:55.175Z,22.45
2023-05-17T05:41:00.613Z,22.51
2023-05-17T05:43:05.950Z,22.54
2023-05-17T05:45:11.398Z,22.6
2023-05-17T05:47:16.829Z,22.64
2023-05-17T05:49:22.168Z,22.67
2023-05-17T05:51:27.412Z,22.66
2023-05-17T05:53:32.744Z,22.67
2023-05-17T05:55:38.286Z,22.69
2023-05-17T05:57:43.584Z,22.72
2023-05-17T05:59:48.854Z,22.72
2023-05-17T06:01:54.093Z,22.73
2023-05-17T06:03:59.537Z,22.78
2023-05-17T06:06:05.168Z,22.78
2023-05-17T06:08:10.722Z,22.82
2023-05-17T06:10:15.962Z,22.86
2023-05-17T06:12:21.295Z,22.88
2023-05-17T06:14:26.539Z,22.91
2023-05-17T06:16:31.972Z,22.91
2023-05-17T06:18:37.497Z,22.93
2023-05-17T06:20:43.170Z,22.95
2023-05-17T06:22:48.496Z,22.96
2023-05-17T06:24:53.941Z,23.01
2023-05-17T06:26:59.189Z,23.02
2023-05-17T06:29:04.417Z,23.03
2023-05-17T06:31:09.746Z,23.04
2023-05-17T06:33:15.424Z,23.05
2023-05-17T06:35:20.941Z,23.06
2023-05-17T06:37:26.167Z,23.08
2023-05-17T06:39:31.290Z,23.11
2023-05-17T06:41:36.430Z,23.15
2023-05-17T06:43:41.872Z,23.2
2023-05-17T06:45:47.215Z,23.24
2023-05-17T06:47:52.656Z,23.28
2023-05-17T06:49:58.093Z,23.32
2023-05-17T06:52:03.616Z,23.32
2023-05-17T06:54:08.872Z,23.32
2023-05-17T06:56:17.171Z,23.32
2023-05-17T06:58:22.417Z,23.33
2023-05-17T07:00:27.811Z,23.33
2023-05-17T07:02:36.553Z,23.34
2023-05-17T07:04:42.228Z,23.33
2023-05-17T07:06:47.965Z,23.34
2023-05-17T07:08:53.502Z,23.34
2023-05-17T07:10:59.044Z,23.33
2023-05-17T07:13:04.283Z,23.33
2023-05-17T07:15:09.617Z,23.31
2023-05-17T07:17:14.976Z,23.29
2023-05-17T07:19:20.728Z,23.29
2023-05-17T07:21:26.455Z,23.3
2023-05-17T07:23:31.693Z,23.26
2023-05-17T07:25:37.079Z,23.27
2023-05-17T07:27:42.377Z,23.27
2023-05-17T07:29:47.700Z,23.28
2023-05-17T07:31:53.139Z,23.3
2023-05-17T07:33:58.817Z,23.3
2023-05-17T07:36:05.274Z,23.28
2023-05-17T07:38:11.009Z,23.28
2023-05-17T07:40:16.333Z,23.25
2023-05-17T07:42:21.669Z,23.27
2023-05-17T07:44:29.667Z,23.26
2023-05-17T07:46:35.162Z,23.27
2023-05-17T07:48:43.150Z,23.28
2023-05-17T07:50:49.078Z,23.29
2023-05-17T07:52:54.709Z,23.28
2023-05-17T07:54:59.954Z,23.29
2023-05-17T07:57:05.393Z,23.31
2023-05-17T07:59:10.820Z,23.31
2023-05-17T08:01:16.161Z,23.32
2023-05-17T08:03:21.701Z,23.32
2023-05-17T08:05:27.355Z,23.31
2023-05-17T08:07:33.712Z,23.31
2023-05-17T08:09:39.263Z,23.3
2023-05-17T08:11:44.741Z,23.3
2023-05-17T08:13:53.006Z,23.29
2023-05-17T08:16:05.245Z,23.31
2023-05-17T08:18:19.578Z,23.31
2023-05-17T08:20:26.628Z,23.32
2023-05-17T08:22:31.966Z,23.33
2023-05-17T08:24:37.507Z,23.33
2023-05-17T08:26:43.047Z,23.31
2023-05-17T08:28:51.171Z,23.3
2023-05-17T08:30:56.589Z,23.29
2023-05-17T08:33:02.126Z,23.27
2023-05-17T08:35:07.680Z,23.26
2023-05-17T08:37:12.936Z,23.27
2023-05-17T08:39:18.454Z,23.26
2023-05-17T08:41:23.702Z,23.25
2023-05-17T08:43:29.031Z,23.24
2023-05-17T08:45:34.362Z,23.24
2023-05-17T08:47:39.612Z,23.25
2023-05-17T08:49:46.358Z,23.26
2023-05-17T08:51:52.941Z,23.27
2023-05-17T08:53:58.180Z,23.27
2023-05-17T08:56:03.424Z,23.3
2023-05-17T08:58:08.772Z,23.31
2023-05-17T09:00:14.092Z,23.32
2023-05-17T09:02:19.561Z,23.31
2023-05-17T09:04:25.128Z,23.32
2023-05-17T09:06:30.726Z,23.31
2023-05-17T09:08:36.160Z,23.3
2023-05-17T09:10:41.403Z,23.31
2023-05-17T09:12:46.848Z,23.3
2023-05-17T09:14:52.070Z,23.28
2023-05-17T09:16:57.523Z,23.28
2023-05-17T09:19:02.937Z,23.28
2023-05-17T09:21:09.115Z,23.28
2023-05-17T09:23:14.548Z,23.29
2023-05-17T09:25:19.985Z,23.28
2023-05-17T09:27:25.328Z,23.27
2023-05-17T09:29:30.836Z,23.25
2023-05-17T09:31:36.521Z,23.24
2023-05-17T09:33:42.122Z,23.24
2023-05-17T09:35:47.607Z,23.24
2023-05-17T09:37:52.837Z,23.22
2023-05-17T09:39:58.275Z,23.22
2023-05-17T09:42:03.817Z,23.22
2023-05-17T09:44:09.064Z,23.23
2023-05-17T09:46:14.801Z,23.23
2023-05-17T09:48:20.321Z,23.23
2023-05-17T09:50:26.396Z,23.23
2023-05-17T09:52:31.839Z,23.24
2023-05-17T09:54:37.279Z,23.22
2023-05-17T09:56:42.720Z,23.23
2023-05-17T09:58:48.158Z,23.24
2023-05-17T10:00:53.395Z,23.28
2023-05-17T10:02:58.919Z,23.27
2023-05-17T10:05:04.708Z,23.28
2023-05-17T10:07:10.122Z,23.3
2023-05-17T10:09:15.693Z,23.28
2023-05-17T10:11:21.220Z,23.27
2023-05-17T10:13:26.448Z,23.27
2023-05-17T10:15:31.787Z,23.28
2023-05-17T10:17:37.250Z,23.29
2023-05-17T10:19:44.262Z,23.31
2023-05-17T10:21:50.356Z,23.32
2023-05-17T10:23:55.686Z,23.34
2023-05-17T10:26:01.026Z,23.35
2023-05-17T10:28:06.271Z,23.35
2023-05-17T10:30:11.712Z,23.35
2023-05-17T10:32:17.094Z,23.35
2023-05-17T10:34:22.676Z,23.33
2023-05-17T10:36:28.127Z,23.34
2023-05-17T10:38:41.584Z,23.34
2023-05-17T10:40:47.922Z,23.32
2023-05-17T10:42:54.608Z,23.31
2023-05-17T10:45:00.032Z,23.32
2023-05-17T10:47:05.570Z,23.35
2023-05-17T10:49:11.342Z,23.38
2023-05-17T10:51:16.784Z,23.38
2023-05-17T10:53:22.198Z,23.39
2023-05-17T10:55:27.844Z,23.4
2023-05-17T10:57:46.727Z,23.39
2023-05-17T10:59:55.817Z,23.42
2023-05-17T11:02:01.167Z,23.42
2023-05-17T11:04:06.696Z,23.42
2023-05-17T11:06:19.331Z,23.42
2023-05-17T11:08:30.074Z,23.44
2023-05-17T11:10:35.516Z,23.44
2023-05-17T11:12:40.954Z,23.44
2023-05-17T11:14:46.306Z,23.4
2023-05-17T11:16:51.627Z,23.41
2023-05-17T11:18:58.102Z,23.39
2023-05-17T11:21:04.119Z,23.37
2023-05-17T11:23:09.863Z,23.35
2023-05-17T11:25:15.133Z,23.35
2023-05-17T11:27:20.627Z,23.35
2023-05-17T11:29:26.122Z,23.33
2023-05-17T11:31:31.754Z,23.33
2023-05-17T11:33:37.140Z,23.32
2023-05-17T11:35:43.044Z,23.32
2023-05-17T11:37:48.287Z,23.35
2023-05-17T11:39:54.737Z,23.34
2023-05-17T11:42:01.210Z,23.38
2023-05-17T11:44:06.650Z,23.42
2023-05-17T11:46:12.093Z,23.47
2023-05-17T11:48:17.466Z,23.53
2023-05-17T11:50:23.181Z,23.6
2023-05-17T11:52:29.349Z,23.64
2023-05-17T11:54:34.892Z,23.69
2023-05-17T11:56:43.275Z,23.72
2023-05-17T11:58:49.254Z,23.76
2023-05-17T12:00:54.693Z,23.81
2023-05-17T12:03:00.173Z,23.85
2023-05-17T12:05:05.833Z,23.87
2023-05-17T12:07:11.418Z,23.91
2023-05-17T12:09:16.651Z,23.94
2023-05-17T12:11:22.087Z,23.97
2023-05-17T12:13:27.653Z,23.98
2023-05-17T12:15:32.998Z,24.02
2023-05-17T12:17:38.389Z,24.04
2023-05-17T12:19:44.200Z,24.07
2023-05-17T12:21:49.918Z,24.09
2023-05-17T12:23:55.261Z,24.1
2023-05-17T12:26:00.487Z,24.13
2023-05-17T12:28:05.961Z,24.15
2023-05-17T12:30:11.300Z,24.17
2023-05-17T12:32:16.708Z,24.18
2023-05-17T12:34:22.040Z,24.19
2023-05-17T12:36:27.314Z,24.24
2023-05-17T12:38:32.629Z,24.25
2023-05-17T12:40:37.845Z,24.31
2023-05-17T12:42:46.264Z,24.3
2023-05-17T12:44:51.603Z,24.25
2023-05-17T12:46:59.319Z,24.21
2023-05-17T12:49:04.622Z,24.2
2023-05-17T12:51:11.921Z,24.16
2023-05-17T12:53:17.349Z,24.12
2023-05-17T12:55:22.798Z,24.1
2023-05-17T12:57:28.339Z,24.13
2023-05-17T12:59:33.681Z,24.14
2023-05-17T13:01:39.232Z,24.15
2023-05-17T13:03:44.656Z,24.14
2023-05-17T13:05:50.414Z,24.13
2023-05-17T13:07:55.654Z,24.09
2023-05-17T13:10:00.886Z,24.1
2023-05-17T13:12:06.127Z,24.1
2023-05-17T13:14:11.561Z,24.1
2023-05-17T13:16:16.935Z,24.13
2023-05-17T13:18:22.381Z,24.11
2023-05-17T13:20:28.183Z,24.11
2023-05-17T13:22:34.357Z,24.08
2023-05-17T13:24:39.599Z,24.09
2023-05-17T13:26:44.928Z,24.1
2023-05-17T13:28:50.170Z,24.1
2023-05-17T13:30:55.731Z,24.12
2023-05-17T13:33:01.223Z,24.13
2023-05-17T13:35:06.802Z,24.15
2023-05-17T13:37:12.835Z,24.17
2023-05-17T13:39:18.403Z,24.2
2023-05-17T13:41:23.868Z,24.2
2023-05-17T13:43:29.383Z,24.29
2023-05-17T13:45:34.757Z,24.34
2023-05-17T13:47:40.388Z,24.35
2023-05-17T13:49:46.038Z,24.36
2023-05-17T13:51:51.248Z,24.4
2023-05-17T13:53:56.692Z,24.45
2023-05-17T13:56:02.037Z,24.49
2023-05-17T13:58:07.419Z,24.55
2023-05-17T14:00:12.707Z,24.59
2023-05-17T14:02:18.148Z,24.6
2023-05-17T14:04:23.390Z,24.61
2023-05-17T14:06:28.948Z,24.65
2023-05-17T14:08:34.570Z,24.69
2023-05-17T14:10:40.023Z,24.71
2023-05-17T14:12:45.463Z,24.72
2023-05-17T14:14:50.795Z,24.73
2023-05-17T14:16:56.193Z,24.74
2023-05-17T14:19:04.403Z,24.75
2023-05-17T14:21:10.292Z,24.74
2023-05-17T14:23:15.837Z,24.76
2023-05-17T14:25:21.382Z,24.77
2023-05-17T14:27:26.716Z,24.8
2023-05-17T14:29:32.066Z,24.82
2023-05-17T14:31:37.401Z,24.82
2023-05-17T14:33:42.729Z,24.83
2023-05-17T14:35:48.587Z,24.85
2023-05-17T14:37:53.831Z,24.83
2023-05-17T14:42:11.369Z,24.85
2023-05-17T14:44:16.706Z,24.86
2023-05-17T14:46:21.939Z,24.88
2023-05-17T14:48:27.525Z,24.84
2023-05-17T14:50:33.023Z,24.91
2023-05-17T14:52:38.461Z,24.9
2023-05-17T14:54:43.908Z,24.92
2023-05-17T14:56:49.445Z,24.92
2023-05-17T14:58:55.000Z,24.92
2023-05-17T15:03:10.103Z,24.99
2023-05-17T15:05:15.938Z,25.01
2023-05-17T15:07:21.464Z,25.03
2023-05-17T15:09:26.902Z,25.04
2023-05-17T15:11:32.286Z,25.05
2023-05-17T15:13:37.880Z,25.06
2023-05-17T15:15:43.230Z,25.04
2023-05-17T15:17:48.629Z,25.04
2023-05-17T15:19:54.318Z,25
2023-05-17T15:22:00.268Z,25.07
2023-05-17T15:24:05.717Z,25.03
2023-05-17T15:26:11.190Z,25.12
2023-05-17T15:28:16.694Z,25.14
2023-05-17T15:30:22.646Z,25.13
2023-05-17T15:32:28.370Z,25.14
2023-05-17T15:34:34.050Z,25.14
2023-05-17T15:36:39.379Z,25.16
2023-05-17T15:38:44.923Z,25.08
2023-05-17T15:40:50.265Z,25.16
2023-05-17T15:42:55.805Z,25.16
2023-05-17T15:45:01.256Z,25.17
2023-05-17T15:47:06.592Z,25.18
2023-05-17T15:49:12.039Z,25.11
2023-05-17T15:51:17.883Z,25.19
2023-05-17T15:53:23.217Z,25.19
2023-05-17T15:55:29.056Z,25.22
2023-05-17T15:57:34.917Z,25.21
2023-05-17T15:59:40.155Z,25.25
2023-05-17T16:01:45.596Z,25.26
2023-05-17T16:03:50.960Z,25.27
2023-05-17T16:05:56.732Z,25.25
2023-05-17T16:08:02.532Z,25.22
2023-05-17T16:10:07.876Z,25.22
2023-05-17T16:12:13.104Z,25.25
2023-05-17T16:14:18.384Z,25.25
2023-05-17T16:16:23.690Z,25.26
2023-05-17T16:18:29.423Z,25.27
2023-05-17T16:20:35.694Z,25.29
2023-05-17T16:22:40.990Z,25.29
2023-05-17T16:24:46.370Z,25.28
2023-05-17T16:26:51.608Z,25.3
2023-05-17T16:28:57.453Z,25.3
2023-05-17T16:31:03.013Z,25.3
2023-05-17T16:33:08.704Z,25.3
2023-05-17T16:35:14.394Z,25.3
2023-05-17T16:37:19.630Z,25.31
2023-05-17T16:39:24.965Z,25.32
2023-05-17T16:41:30.301Z,25.33
2023-05-17T16:43:35.750Z,25.28
2023-05-17T16:45:41.196Z,25.31
2023-05-17T16:47:46.740Z,25.32
2023-05-17T16:49:52.393Z,25.38
2023-05-17T16:51:57.716Z,25.36
2023-05-17T16:54:03.153Z,25.35
2023-05-17T16:56:08.700Z,25.34
2023-05-17T16:58:13.943Z,25.37
2023-05-17T17:00:19.393Z,25.39
2023-05-17T17:02:25.061Z,25.38
2023-05-17T17:04:30.771Z,25.36
2023-05-17T17:06:36.106Z,25.38
2023-05-17T17:08:41.442Z,25.36
2023-05-17T17:10:47.017Z,25.33
2023-05-17T17:12:52.546Z,25.28
2023-05-17T17:14:57.892Z,25.32
2023-05-17T17:17:03.326Z,25.24
2023-05-17T17:19:08.685Z,25.18
2023-05-17T17:21:14.241Z,25.13
2023-05-17T17:23:19.737Z,25.06
2023-05-17T17:25:25.156Z,25
2023-05-17T17:27:30.630Z,24.95
2023-05-17T17:29:36.070Z,24.94
2023-05-17T17:31:41.667Z,24.92
2023-05-17T17:33:47.247Z,24.92
2023-05-17T17:35:52.596Z,24.94
2023-05-17T17:37:58.037Z,24.93
2023-05-17T17:40:03.333Z,24.95
2023-05-17T17:42:09.018Z,24.93
2023-05-17T17:44:14.378Z,24.92
2023-05-17T17:46:19.814Z,24.88
2023-05-17T17:48:25.338Z,24.88
2023-05-17T17:50:30.912Z,24.91
2023-05-17T17:52:36.632Z,24.92
2023-05-17T17:54:43.533Z,24.89
2023-05-17T17:56:50.279Z,24.9
2023-05-17T17:58:55.749Z,24.92
2023-05-17T18:01:01.217Z,24.91
2023-05-17T18:03:06.813Z,24.9
2023-05-17T18:05:12.334Z,24.91
2023-05-17T18:07:17.683Z,24.91
2023-05-17T18:09:23.064Z,24.95
2023-05-17T18:11:28.367Z,24.96
2023-05-17T18:13:33.805Z,24.91
2023-05-17T18:15:39.138Z,24.91
2023-05-17T18:17:44.604Z,24.9
2023-05-17T18:19:50.095Z,24.89
2023-05-17T18:21:55.427Z,24.85
2023-05-17T18:24:00.866Z,24.83
2023-05-17T18:26:06.322Z,24.79
2023-05-17T18:28:11.855Z,24.81
2023-05-17T18:30:17.192Z,24.76
2023-05-17T18:32:22.706Z,24.67
2023-05-17T18:34:28.292Z,24.38
2023-05-17T18:36:33.719Z,24.05
2023-05-17T18:38:39.188Z,23.69
2023-05-17T18:40:44.588Z,23.41
2023-05-17T18:42:49.996Z,23.13
2023-05-17T18:44:55.346Z,22.88
2023-05-17T18:47:00.891Z,22.65
2023-05-17T18:49:06.613Z,22.4
2023-05-17T18:51:11.925Z,22.15
2023-05-17T18:53:17.486Z,22.03
2023-05-17T18:55:22.995Z,21.94
2023-05-17T18:57:28.343Z,21.79
2023-05-17T18:59:33.682Z,21.7
2023-05-17T19:01:39.115Z,21.59
2023-05-17T19:03:44.574Z,21.48
2023-05-17T19:05:50.203Z,21.4
2023-05-17T19:07:55.645Z,21.46
2023-05-17T19:10:01.184Z,21.66
2023-05-17T19:12:06.427Z,21.89
2023-05-17T19:14:11.772Z,22.11
2023-05-17T19:16:16.998Z,22.3
2023-05-17T19:18:22.464Z,22.47
2023-05-17T19:20:28.389Z,22.62
2023-05-17T19:22:34.438Z,22.72
2023-05-17T19:24:39.782Z,22.84
2023-05-17T19:26:45.142Z,22.94
2023-05-17T19:28:50.880Z,23.02
2023-05-17T19:30:56.428Z,23.16
2023-05-17T19:33:01.802Z,23.24
2023-05-17T19:35:07.317Z,23.31
2023-05-17T19:37:12.732Z,23.41
2023-05-17T19:39:18.067Z,23.45
2023-05-17T19:41:23.527Z,23.5
2023-05-17T19:43:28.969Z,23.54
2023-05-17T19:45:34.289Z,23.57
2023-05-17T19:47:39.854Z,23.58
2023-05-17T19:49:45.392Z,23.61
2023-05-17T19:51:50.731Z,23.61
2023-05-17T19:53:56.067Z,23.65
2023-05-17T19:56:01.390Z,23.65
2023-05-17T19:58:06.827Z,23.71
2023-05-17T20:00:12.268Z,23.74
2023-05-17T20:02:17.723Z,23.75
2023-05-17T20:04:23.453Z,23.74
2023-05-17T20:06:28.910Z,23.74
2023-05-17T20:08:34.342Z,23.73
2023-05-17T20:10:39.612Z,23.72
2023-05-17T20:12:44.909Z,23.73
2023-05-17T20:14:50.240Z,23.73
2023-05-17T20:16:55.755Z,23.74
2023-05-17T20:19:01.209Z,23.76
2023-05-17T20:21:07.069Z,23.79
2023-05-17T20:23:12.426Z,23.82
2023-05-17T20:25:17.849Z,23.83
2023-05-17T20:27:23.408Z,23.84
2023-05-17T20:29:28.830Z,23.84
2023-05-17T20:31:34.315Z,23.88
2023-05-17T20:33:39.922Z,23.9
2023-05-17T20:35:45.476Z,23.89
2023-05-17T20:37:51.103Z,23.91
2023-05-17T20:39:56.471Z,23.89
2023-05-17T20:42:01.881Z,23.9
2023-05-17T20:44:07.532Z,23.92
2023-05-17T20:46:12.903Z,23.9
2023-05-17T20:48:18.345Z,23.9
2023-05-17T20:50:23.751Z,23.86
2023-05-17T20:52:38.625Z,23.85
2023-05-17T20:54:44.762Z,23.85
2023-05-17T20:56:50.305Z,23.85
2023-05-17T20:58:55.656Z,23.81
2023-05-17T21:01:00.853Z,23.82
2023-05-17T21:03:06.419Z,23.8
2023-05-17T21:05:12.172Z,23.79
2023-05-17T21:07:17.587Z,23.77
2023-05-17T21:09:22.949Z,23.77
2023-05-17T21:11:28.388Z,23.75
2023-05-17T21:13:34.137Z,23.74
2023-05-17T21:15:39.489Z,23.74
2023-05-17T21:17:44.932Z,23.74
2023-05-17T21:19:50.455Z,23.74
2023-05-17T21:21:55.794Z,23.73
2023-05-17T21:24:01.032Z,23.74
2023-05-17T21:26:06.468Z,23.74
2023-05-17T21:28:11.916Z,23.74
2023-05-17T21:30:17.453Z,23.74
2023-05-17T21:32:23.056Z,23.73
2023-05-17T21:34:28.643Z,23.71
2023-05-17T21:36:33.937Z,23.71
2023-05-17T21:38:39.212Z,23.7
2023-05-17T21:40:44.555Z,23.7
2023-05-17T21:42:49.938Z,23.69
2023-05-17T21:44:55.542Z,23.68
2023-05-17T21:47:00.972Z,23.67
2023-05-17T21:49:06.515Z,23.68
2023-05-17T21:51:12.061Z,23.69
2023-05-17T21:53:17.503Z,23.69
2023-05-17T21:55:22.941Z,23.68
2023-05-17T21:57:30.030Z,23.69
2023-05-17T21:59:35.576Z,23.69
2023-05-17T22:01:41.047Z,23.7
2023-05-17T22:03:46.665Z,23.68
2023-05-17T22:05:52.318Z,23.65
2023-05-17T22:07:57.846Z,23.67
2023-05-17T22:10:03.171Z,23.67
2023-05-17T22:12:10.867Z,23.66
2023-05-17T22:14:16.304Z,23.64
2023-05-17T22:16:21.666Z,23.63
2023-05-17T22:18:27.441Z,23.62
2023-05-17T22:20:33.028Z,23.63
2023-05-17T22:22:38.582Z,23.61
2023-05-17T22:24:43.916Z,23.62
2023-05-17T22:26:49.365Z,23.61
2023-05-17T22:28:54.793Z,23.63
2023-05-17T22:31:00.341Z,23.62
2023-05-17T22:33:06.028Z,23.64
2023-05-17T22:35:11.532Z,23.64
2023-05-17T22:37:16.973Z,23.63
2023-05-17T22:39:22.211Z,23.62
2023-05-17T22:41:27.553Z,23.62
2023-05-17T22:43:32.987Z,23.63
2023-05-17T22:45:38.424Z,23.62
2023-05-17T22:47:43.701Z,23.62
2023-05-17T22:49:48.998Z,23.61
2023-05-17T22:51:54.546Z,23.62
2023-05-17T22:53:59.874Z,23.62
2023-05-17T22:56:05.323Z,23.61
2023-05-17T22:58:10.667Z,23.59
2023-05-17T23:00:16.114Z,23.61
2023-05-17T23:02:21.456Z,23.61
2023-05-17T23:04:27.111Z,23.59
2023-05-17T23:06:33.338Z,23.59
2023-05-17T23:08:38.786Z,23.58
2023-05-17T23:10:44.023Z,23.58
2023-05-17T23:12:51.531Z,23.59
2023-05-17T23:14:57.757Z,23.56
2023-05-17T23:17:03.330Z,23.58
2023-05-17T23:19:08.958Z,23.59
2023-05-17T23:21:14.300Z,23.58
2023-05-17T23:23:19.627Z,23.53
2023-05-17T23:25:24.814Z,23.56
2023-05-17T23:27:30.496Z,23.56
2023-05-17T23:29:35.836Z,23.58
2023-05-17T23:31:41.282Z,23.56
2023-05-17T23:33:47.227Z,23.55
2023-05-17T23:35:52.468Z,23.54
2023-05-17T23:37:57.809Z,23.52
2023-05-17T23:40:03.255Z,23.5
2023-05-17T23:42:08.686Z,23.49
2023-05-17T23:44:13.930Z,23.48
2023-05-17T23:46:19.416Z,23.47
2023-05-17T23:48:24.814Z,23.46
2023-05-17T23:50:30.207Z,23.44
2023-05-17T23:52:35.378Z,23.45
2023-05-17T23:54:40.813Z,23.44
2023-05-17T23:56:46.259Z,23.44
2023-05-17T23:58:51.701Z,23.44
